Time,TemperatureF,DewpointF,PressureIn,WindDirection,WindDirectionDegrees,WindSpeedMPH,WindSpeedGustMPH,Humidity,HourlyPrecipIn,Conditions,Clouds,dailyrainin,SoftwareType,DateUTC
2013-04-14 00:02:00,64.0,14.0,29.78,SW,227,6.0,7.0,14,-99.99,,,-99.99,,2013-04-14 06:02:00,
2013-04-14 00:12:00,62.0,14.0,29.78,West,262,7.0,9.0,15,-99.99,,,-99.99,,2013-04-14 06:12:00,
2013-04-14 00:22:00,63.0,15.0,29.78,West,277,8.0,12.0,15,-99.99,,,-99.99,,2013-04-14 06:22:00,
2013-04-14 00:32:00,63.0,15.0,29.78,West,275,8.0,10.0,15,-99.99,,,-99.99,,2013-04-14 06:32:00,
2013-04-14 00:42:00,63.0,15.0,29.78,West,271,12.0,16.0,15,-99.99,,,-99.99,,2013-04-14 06:42:00,
2013-04-14 00:52:00,64.0,14.0,29.78,West,276,13.0,16.0,14,-99.99,,,-99.99,,2013-04-14 06:52:00,
2013-04-14 01:02:00,65.0,15.0,29.78,WNW,287,16.0,21.0,14,-99.99,,,-99.99,,2013-04-14 07:02:00,
2013-04-14 01:12:00,65.0,15.0,29.78,WNW,282,14.0,18.0,14,-99.99,,,-99.99,,2013-04-14 07:12:00,
2013-04-14 01:22:00,64.0,16.0,29.78,West,278,16.0,20.0,15,-99.99,,,-99.99,,2013-04-14 07:22:00,
2013-04-14 01:32:00,63.0,14.0,29.79,WSW,248,12.0,17.0,15,-99.99,,,-99.99,,2013-04-14 07:32:00,
2013-04-14 01:42:00,61.0,13.0,29.79,WSW,254,9.0,13.0,15,-99.99,,,-99.99,,2013-04-14 07:42:00,
2013-04-14 01:52:00,60.0,14.0,29.78,WSW,241,10.0,13.0,16,-99.99,,,-99.99,,2013-04-14 07:52:00,
2013-04-14 02:02:00,59.0,14.0,29.78,WSW,254,8.0,12.0,17,-99.99,,,-99.99,,2013-04-14 08:02:00,
2013-04-14 02:12:00,58.0,15.0,29.77,WSW,253,8.0,12.0,18,-99.99,,,-99.99,,2013-04-14 08:12:00,
2013-04-14 02:22:00,59.0,14.0,29.77,WSW,248,10.0,14.0,17,-99.99,,,-99.99,,2013-04-14 08:22:00,
2013-04-14 02:32:00,59.0,15.0,29.78,WSW,242,12.0,14.0,18,-99.99,,,-99.99,,2013-04-14 08:32:00,
2013-04-14 02:42:00,60.0,15.0,29.78,SW,235,10.0,13.0,17,-99.99,,,-99.99,,2013-04-14 08:42:00,
2013-04-14 02:52:00,59.0,16.0,29.78,SW,227,9.0,10.0,18,-99.99,,,-99.99,,2013-04-14 08:52:00,
2013-04-14 03:03:00,59.0,17.0,29.78,SW,231,9.0,12.0,19,-99.99,,,-99.99,,2013-04-14 09:03:00,
2013-04-14 03:12:00,59.0,17.0,29.79,WSW,238,9.0,13.0,19,-99.99,,,-99.99,,2013-04-14 09:12:00,
2013-04-14 03:22:00,60.0,16.0,29.79,WSW,243,9.0,15.0,18,-99.99,,,-99.99,,2013-04-14 09:22:00,
2013-04-14 03:32:00,60.0,16.0,29.79,West,264,9.0,12.0,18,-99.99,,,-99.99,,2013-04-14 09:32:00,
2013-04-14 03:42:00,59.0,17.0,29.79,West,269,10.0,13.0,19,-99.99,,,-99.99,,2013-04-14 09:42:00,
2013-04-14 03:53:00,59.0,17.0,29.80,WSW,253,7.0,10.0,19,-99.99,,,-99.99,,2013-04-14 09:53:00,
2013-04-14 04:03:00,58.0,17.0,29.79,WSW,252,7.0,10.0,20,-99.99,,,-99.99,,2013-04-14 10:03:00,
2013-04-14 04:12:00,58.0,16.0,29.80,SW,232,10.0,14.0,19,-99.99,,,-99.99,,2013-04-14 10:12:00,
2013-04-14 04:23:00,58.0,16.0,29.80,SW,236,12.0,13.0,19,-99.99,,,-99.99,,2013-04-14 10:23:00,
2013-04-14 04:32:00,58.0,15.0,29.80,WSW,253,6.0,10.0,18,-99.99,,,-99.99,,2013-04-14 10:32:00,
2013-04-14 04:42:00,59.0,16.0,29.80,West,264,8.0,10.0,18,-99.99,,,-99.99,,2013-04-14 10:42:00,
2013-04-14 04:52:00,58.0,16.0,29.80,WSW,257,6.0,8.0,19,-99.99,,,-99.99,,2013-04-14 10:52:00,
2013-04-14 05:02:00,59.0,16.0,29.81,WNW,285,10.0,14.0,18,-99.99,,,-99.99,,2013-04-14 11:02:00,
2013-04-14 05:12:00,61.0,16.0,29.81,WNW,295,9.0,13.0,17,-99.99,,,-99.99,,2013-04-14 11:12:00,
2013-04-14 05:22:00,60.0,16.0,29.81,West,275,9.0,10.0,18,-99.99,,,-99.99,,2013-04-14 11:22:00,
2013-04-14 05:32:00,60.0,16.0,29.81,WSW,252,8.0,13.0,18,-99.99,,,-99.99,,2013-04-14 11:32:00,
2013-04-14 05:42:00,59.0,17.0,29.82,WSW,247,12.0,15.0,19,-99.99,,,-99.99,,2013-04-14 11:42:00,
2013-04-14 05:52:00,58.0,16.0,29.82,WSW,246,10.0,13.0,19,-99.99,,,-99.99,,2013-04-14 11:52:00,
2013-04-14 06:02:00,58.0,16.0,29.82,WSW,254,8.0,12.0,19,-99.99,,,-99.99,,2013-04-14 12:02:00,
2013-04-14 06:12:00,57.0,17.0,29.82,WSW,251,8.0,10.0,20,-99.99,,,-99.99,,2013-04-14 12:12:00,
2013-04-14 06:22:00,56.0,18.0,29.82,WSW,252,8.0,14.0,22,-99.99,,,-99.99,,2013-04-14 12:22:00,
2013-04-14 06:32:00,59.0,18.0,29.82,WSW,240,13.0,17.0,20,-99.99,,,-99.99,,2013-04-14 12:32:00,
2013-04-14 06:42:00,58.0,18.0,29.83,SW,230,9.0,13.0,21,-99.99,,,-99.99,,2013-04-14 12:42:00,
2013-04-14 06:51:00,56.0,18.0,29.83,SW,234,8.0,9.0,22,-99.99,,,-99.99,,2013-04-14 12:51:00,
2013-04-14 07:02:00,54.0,17.0,29.83,WSW,251,6.0,10.0,23,-99.99,,,-99.99,,2013-04-14 13:02:00,
2013-04-14 07:12:00,55.0,19.0,29.83,West,268,6.0,8.0,24,-99.99,,,-99.99,,2013-04-14 13:12:00,
2013-04-14 07:22:00,55.0,20.0,29.84,WSW,255,6.0,10.0,25,-99.99,,,-99.99,,2013-04-14 13:22:00,
2013-04-14 07:32:00,59.0,23.0,29.83,WSW,239,12.0,16.0,24,-99.99,,,-99.99,,2013-04-14 13:32:00,
2013-04-14 07:42:00,60.0,22.0,29.84,WSW,251,12.0,18.0,23,-99.99,,,-99.99,,2013-04-14 13:42:00,
2013-04-14 07:52:00,61.0,22.0,29.84,WSW,258,14.0,21.0,22,-99.99,,,-99.99,,2013-04-14 13:52:00,
2013-04-14 08:02:00,62.0,22.0,29.85,West,263,15.0,22.0,22,-99.99,,,-99.99,,2013-04-14 14:02:00,
2013-04-14 08:12:00,62.0,23.0,29.85,WSW,255,13.0,21.0,22,-99.99,,,-99.99,,2013-04-14 14:12:00,
2013-04-14 08:22:00,62.0,22.0,29.85,West,263,15.0,22.0,21,-99.99,,,-99.99,,2013-04-14 14:22:00,
2013-04-14 08:32:00,63.0,22.0,29.86,West,266,15.0,20.0,21,-99.99,,,-99.99,,2013-04-14 14:32:00,
2013-04-14 08:42:00,63.0,22.0,29.86,WSW,250,13.0,22.0,21,-99.99,,,-99.99,,2013-04-14 14:42:00,
2013-04-14 08:52:00,64.0,23.0,29.86,West,267,20.0,27.0,21,-99.99,,,-99.99,,2013-04-14 14:52:00,
2013-04-14 09:02:00,65.0,24.0,29.86,West,277,18.0,25.0,21,-99.99,,,-99.99,,2013-04-14 15:02:00,
2013-04-14 09:12:00,65.0,23.0,29.86,WSW,249,14.0,21.0,20,-99.99,,,-99.99,,2013-04-14 15:12:00,
2013-04-14 09:22:00,66.0,24.0,29.86,West,261,12.0,18.0,20,-99.99,,,-99.99,,2013-04-14 15:22:00,
2013-04-14 09:33:00,66.0,24.0,29.87,WSW,255,16.0,25.0,20,-99.99,,,-99.99,,2013-04-14 15:33:00,
2013-04-14 09:43:00,67.0,23.0,29.87,WSW,252,14.0,22.0,19,-99.99,,,-99.99,,2013-04-14 15:43:00,
2013-04-14 09:52:00,67.0,23.0,29.87,WSW,249,18.0,27.0,19,-99.99,,,-99.99,,2013-04-14 15:52:00,
2013-04-14 10:04:00,68.0,24.0,29.87,WSW,245,14.0,21.0,19,-99.99,,,-99.99,,2013-04-14 16:04:00,
2013-04-14 10:13:00,68.0,23.0,29.87,WSW,252,14.0,20.0,18,-99.99,,,-99.99,,2013-04-14 16:13:00,
2013-04-14 10:22:00,68.0,23.0,29.87,WSW,241,12.0,18.0,18,-99.99,,,-99.99,,2013-04-14 16:22:00,
2013-04-14 10:33:00,69.0,21.0,29.86,West,267,20.0,29.0,16,-99.99,,,-99.99,,2013-04-14 16:33:00,
2013-04-14 10:43:00,69.0,21.0,29.86,West,264,20.0,29.0,16,-99.99,,,-99.99,,2013-04-14 16:43:00,
2013-04-14 10:53:00,70.0,21.0,29.86,West,263,17.0,31.0,16,-99.99,,,-99.99,,2013-04-14 16:53:00,
2013-04-14 11:02:00,70.0,22.0,29.86,West,260,18.0,29.0,16,-99.99,,,-99.99,,2013-04-14 17:02:00,
2013-04-14 11:12:00,70.0,22.0,29.86,WSW,250,15.0,23.0,16,-99.99,,,-99.99,,2013-04-14 17:12:00,
2013-04-14 11:22:00,71.0,21.0,29.86,West,264,21.0,27.0,15,-99.99,,,-99.99,,2013-04-14 17:22:00,
2013-04-14 11:32:00,72.0,20.0,29.85,WNW,293,20.0,29.0,14,-99.99,,,-99.99,,2013-04-14 17:32:00,
2013-04-14 11:42:00,72.0,20.0,29.85,West,275,17.0,24.0,14,-99.99,,,-99.99,,2013-04-14 17:42:00,
2013-04-14 11:52:00,73.0,21.0,29.85,WSW,247,16.0,25.0,14,-99.99,,,-99.99,,2013-04-14 17:52:00,
2013-04-14 12:02:00,74.0,21.0,29.84,West,267,17.0,25.0,14,-99.99,,,-99.99,,2013-04-14 18:02:00,
2013-04-14 12:12:00,74.0,21.0,29.83,WSW,244,18.0,28.0,14,-99.99,,,-99.99,,2013-04-14 18:12:00,
2013-04-14 12:22:00,74.0,20.0,29.83,West,274,15.0,20.0,13,-99.99,,,-99.99,,2013-04-14 18:22:00,
2013-04-14 12:32:00,74.0,20.0,29.83,WNW,287,17.0,24.0,13,-99.99,,,-99.99,,2013-04-14 18:32:00,
2013-04-14 12:43:00,75.0,21.0,29.82,West,271,17.0,28.0,13,-99.99,,,-99.99,,2013-04-14 18:43:00,
2013-04-14 12:52:00,75.0,21.0,29.82,WSW,248,15.0,30.0,13,-99.99,,,-99.99,,2013-04-14 18:52:00,
2013-04-14 13:03:00,76.0,22.0,29.82,WSW,241,20.0,29.0,13,-99.99,,,-99.99,,2013-04-14 19:03:00,
2013-04-14 13:12:00,76.0,22.0,29.81,West,281,15.0,21.0,13,-99.99,,,-99.99,,2013-04-14 19:12:00,
2013-04-14 13:22:00,75.0,21.0,29.81,WSW,254,17.0,27.0,13,-99.99,,,-99.99,,2013-04-14 19:22:00,
2013-04-14 13:32:00,76.0,22.0,29.80,WSW,252,18.0,25.0,13,-99.99,,,-99.99,,2013-04-14 19:32:00,
2013-04-14 13:42:00,77.0,22.0,29.80,West,274,20.0,25.0,13,-99.99,,,-99.99,,2013-04-14 19:42:00,
2013-04-14 13:52:00,77.0,23.0,29.79,West,269,18.0,28.0,13,-99.99,,,-99.99,,2013-04-14 19:52:00,
2013-04-14 14:02:00,78.0,23.0,29.79,West,259,18.0,28.0,13,-99.99,,,-99.99,,2013-04-14 20:02:00,
2013-04-14 14:12:00,78.0,21.0,29.78,WSW,244,17.0,27.0,12,-99.99,,,-99.99,,2013-04-14 20:12:00,
2013-04-14 14:22:00,78.0,23.0,29.78,WSW,256,18.0,30.0,13,-99.99,,,-99.99,,2013-04-14 20:22:00,
2013-04-14 14:33:00,78.0,23.0,29.77,WSW,244,12.0,20.0,13,-99.99,,,-99.99,,2013-04-14 20:33:00,
2013-04-14 14:42:00,79.0,22.0,29.77,SW,236,15.0,24.0,12,-99.99,,,-99.99,,2013-04-14 20:42:00,
2013-04-14 14:52:00,80.0,22.0,29.77,WSW,251,17.0,31.0,12,-99.99,,,-99.99,,2013-04-14 20:52:00,
2013-04-14 15:02:00,80.0,23.0,29.76,WSW,240,15.0,24.0,12,-99.99,,,-99.99,,2013-04-14 21:02:00,
2013-04-14 15:12:00,80.0,21.0,29.75,WSW,240,17.0,28.0,11,-99.99,,,-99.99,,2013-04-14 21:12:00,
2013-04-14 15:23:00,80.0,23.0,29.75,WSW,255,16.0,27.0,12,-99.99,,,-99.99,,2013-04-14 21:23:00,
2013-04-14 15:33:00,80.0,21.0,29.75,West,265,21.0,31.0,11,-99.99,,,-99.99,,2013-04-14 21:33:00,
2013-04-14 15:43:00,80.0,21.0,29.75,WSW,256,24.0,39.0,11,-99.99,,,-99.99,,2013-04-14 21:43:00,
2013-04-14 15:53:00,80.0,21.0,29.74,West,263,14.0,22.0,11,-99.99,,,-99.99,,2013-04-14 21:53:00,
2013-04-14 16:03:00,80.0,21.0,29.74,West,265,21.0,29.0,11,-99.99,,,-99.99,,2013-04-14 22:03:00,
2013-04-14 16:13:00,81.0,21.0,29.74,SW,228,23.0,32.0,11,-99.99,,,-99.99,,2013-04-14 22:13:00,
2013-04-14 16:23:00,80.0,19.0,29.74,West,266,22.0,29.0,10,-99.99,,,-99.99,,2013-04-14 22:23:00,
2013-04-14 16:32:00,81.0,19.0,29.73,WSW,255,24.0,38.0,10,-99.99,,,-99.99,,2013-04-14 22:32:00,
2013-04-14 16:43:00,80.0,19.0,29.73,WSW,254,20.0,31.0,10,-99.99,,,-99.99,,2013-04-14 22:43:00,
2013-04-14 16:52:00,81.0,19.0,29.73,West,275,22.0,30.0,10,-99.99,,,-99.99,,2013-04-14 22:52:00,
2013-04-14 17:02:00,81.0,19.0,29.73,WNW,287,24.0,33.0,10,-99.99,,,-99.99,,2013-04-14 23:02:00,
2013-04-14 17:12:00,81.0,21.0,29.73,West,265,17.0,28.0,11,-99.99,,,-99.99,,2013-04-14 23:12:00,
2013-04-14 17:22:00,81.0,19.0,29.72,West,259,23.0,38.0,10,-99.99,,,-99.99,,2013-04-14 23:22:00,
2013-04-14 17:33:00,80.0,21.0,29.72,West,273,17.0,23.0,11,-99.99,,,-99.99,,2013-04-14 23:33:00,
2013-04-14 17:43:00,80.0,19.0,29.72,WSW,250,21.0,31.0,10,-99.99,,,-99.99,,2013-04-14 23:43:00,
2013-04-14 17:52:00,80.0,19.0,29.72,West,260,22.0,32.0,10,-99.99,,,-99.99,,2013-04-14 23:52:00,
2013-04-14 18:02:00,80.0,19.0,29.72,West,259,18.0,24.0,10,-99.99,,,-99.99,,2013-04-15 00:02:00,
2013-04-14 18:12:00,80.0,18.0,29.72,WNW,283,22.0,30.0,10,-99.99,,,-99.99,,2013-04-15 00:12:00,
2013-04-14 18:23:00,80.0,18.0,29.73,West,262,21.0,36.0,10,-99.99,,,-99.99,,2013-04-15 00:23:00,
2013-04-14 18:33:00,79.0,18.0,29.72,WSW,254,15.0,25.0,10,-99.99,,,-99.99,,2013-04-15 00:33:00,
2013-04-14 18:42:00,79.0,20.0,29.73,West,273,22.0,29.0,11,-99.99,,,-99.99,,2013-04-15 00:42:00,
2013-04-14 18:52:00,79.0,20.0,29.73,West,273,22.0,28.0,11,-99.99,,,-99.99,,2013-04-15 00:52:00,
2013-04-14 19:02:00,79.0,20.0,29.73,WSW,256,21.0,30.0,11,-99.99,,,-99.99,,2013-04-15 01:02:00,
2013-04-14 19:12:00,78.0,19.0,29.73,WSW,255,15.0,25.0,11,-99.99,,,-99.99,,2013-04-15 01:12:00,
2013-04-14 19:23:00,78.0,19.0,29.73,West,262,17.0,24.0,11,-99.99,,,-99.99,,2013-04-15 01:23:00,
2013-04-14 19:32:00,77.0,21.0,29.73,West,262,15.0,22.0,12,-99.99,,,-99.99,,2013-04-15 01:32:00,
2013-04-14 19:42:00,77.0,21.0,29.73,WSW,250,15.0,23.0,12,-99.99,,,-99.99,,2013-04-15 01:42:00,
2013-04-14 19:52:00,77.0,20.0,29.74,WSW,254,14.0,22.0,12,-99.99,,,-99.99,,2013-04-15 01:52:00,
2013-04-14 20:02:00,76.0,20.0,29.74,WSW,250,10.0,17.0,12,-99.99,,,-99.99,,2013-04-15 02:02:00,
2013-04-14 20:12:00,75.0,19.0,29.74,WSW,246,10.0,16.0,12,-99.99,,,-99.99,,2013-04-15 02:12:00,
2013-04-14 20:22:00,75.0,21.0,29.74,WSW,244,15.0,22.0,13,-99.99,,,-99.99,,2013-04-15 02:22:00,
2013-04-14 20:32:00,74.0,20.0,29.75,WSW,239,15.0,21.0,13,-99.99,,,-99.99,,2013-04-15 02:32:00,
2013-04-14 20:42:00,74.0,22.0,29.75,WSW,241,12.0,15.0,14,-99.99,,,-99.99,,2013-04-15 02:42:00,
2013-04-14 20:52:00,73.0,20.0,29.75,WSW,244,12.0,18.0,13,-99.99,,,-99.99,,2013-04-15 02:52:00,
2013-04-14 21:03:00,73.0,19.0,29.76,WSW,249,13.0,18.0,13,-99.99,,,-99.99,,2013-04-15 03:03:00,
2013-04-14 21:12:00,73.0,19.0,29.76,WSW,245,13.0,20.0,13,-99.99,,,-99.99,,2013-04-15 03:12:00,
2013-04-14 21:22:00,72.0,19.0,29.77,WSW,244,15.0,20.0,13,-99.99,,,-99.99,,2013-04-15 03:22:00,
2013-04-14 21:33:00,72.0,18.0,29.77,WSW,250,12.0,18.0,13,-99.99,,,-99.99,,2013-04-15 03:33:00,
2013-04-14 21:43:00,72.0,18.0,29.78,WSW,252,14.0,20.0,13,-99.99,,,-99.99,,2013-04-15 03:43:00,
2013-04-14 21:54:00,71.0,18.0,29.78,WSW,256,13.0,20.0,13,-99.99,,,-99.99,,2013-04-15 03:54:00,
2013-04-14 22:03:00,71.0,19.0,29.78,West,262,13.0,17.0,14,-99.99,,,-99.99,,2013-04-15 04:03:00,
2013-04-14 22:13:00,71.0,19.0,29.79,West,262,15.0,21.0,14,-99.99,,,-99.99,,2013-04-15 04:13:00,
2013-04-14 22:23:00,70.0,19.0,29.79,West,260,13.0,17.0,14,-99.99,,,-99.99,,2013-04-15 04:23:00,
2013-04-14 22:33:00,70.0,18.0,29.79,WSW,253,13.0,18.0,14,-99.99,,,-99.99,,2013-04-15 04:33:00,
2013-04-14 22:42:00,69.0,20.0,29.80,WSW,251,9.0,14.0,15,-99.99,,,-99.99,,2013-04-15 04:42:00,
2013-04-14 22:52:00,68.0,19.0,29.80,WSW,248,8.0,10.0,15,-99.99,,,-99.99,,2013-04-15 04:52:00,
2013-04-14 23:02:00,67.0,19.0,29.80,WSW,241,9.0,12.0,16,-99.99,,,-99.99,,2013-04-15 05:02:00,
2013-04-14 23:12:00,66.0,18.0,29.80,WSW,241,9.0,12.0,16,-99.99,,,-99.99,,2013-04-15 05:12:00,
2013-04-14 23:23:00,65.0,18.0,29.80,WSW,241,10.0,13.0,16,-99.99,,,-99.99,,2013-04-15 05:23:00,
2013-04-14 23:33:00,66.0,17.0,29.80,WSW,241,12.0,15.0,15,-99.99,,,-99.99,,2013-04-15 05:33:00,
2013-04-14 23:42:00,65.0,17.0,29.80,WSW,246,10.0,14.0,15,-99.99,,,-99.99,,2013-04-15 05:42:00,
2013-04-14 23:52:00,65.0,15.0,29.80,WSW,241,10.0,16.0,14,-99.99,,,-99.99,,2013-04-15 05:52:00,